createdAt,value
2019-05-09T00:06:09.217Z,10.57
2019-05-09T00:16:14.718Z,10.73
2019-05-09T00:26:19.559Z,11.80
2019-05-09T00:36:24.409Z,15.67
2019-05-09T00:46:34.074Z,14.43
2019-05-09T00:56:38.706Z,11.37
2019-05-09T01:06:44.580Z,14.83
2019-05-09T01:16:49.040Z,16.93
2019-05-09T01:26:54.157Z,16.33
2019-05-09T01:37:10.708Z,16.20
2019-05-09T01:47:15.141Z,15.10
2019-05-09T01:57:19.746Z,16.07
2019-05-09T02:07:24.324Z,15.53
2019-05-09T02:18:00.684Z,14.77
2019-05-09T02:27:55.336Z,11.87
2019-05-09T02:37:59.862Z,12.13
2019-05-09T02:48:04.490Z,15.35
2019-05-09T02:58:10.629Z,16.12
2019-05-09T03:08:15.229Z,10.90
2019-05-09T03:18:19.685Z,14.23
2019-05-09T03:28:28.294Z,12.87
2019-05-09T03:38:32.175Z,12.40
2019-05-09T03:48:38.347Z,11.77
2019-05-09T03:58:42.986Z,11.30
2019-05-09T04:08:48.492Z,14.50
2019-05-09T04:18:53.923Z,13.43
2019-05-09T04:28:59.609Z,15.73
2019-05-09T04:39:07.682Z,15.00
2019-05-09T04:49:12.162Z,13.00
2019-05-09T04:59:17.900Z,12.27
2019-05-09T05:09:23.569Z,11.83
2019-05-09T05:19:31.366Z,15.37
2019-05-09T05:29:34.290Z,14.53
2019-05-09T05:39:38.878Z,15.50
2019-05-09T05:49:44.284Z,13.60
2019-05-09T05:59:49.125Z,13.73
2019-05-09T06:09:53.735Z,13.30
2019-05-09T06:20:00.395Z,18.17
2019-05-09T06:30:09.369Z,15.93
2019-05-09T06:40:18.375Z,15.43
2019-05-09T06:50:23.162Z,13.07
2019-05-09T07:00:54.190Z,13.17
2019-05-09T07:10:58.727Z,14.00
2019-05-09T07:21:03.380Z,14.13
2019-05-09T07:31:11.692Z,16.90
2019-05-09T07:41:17.816Z,15.97
2019-05-09T07:51:23.092Z,15.17
2019-05-09T08:01:28.156Z,13.27
2019-05-09T08:11:33.832Z,14.40
2019-05-09T08:21:38.550Z,15.67
2019-05-09T08:31:45.480Z,15.20
2019-05-09T08:41:49.626Z,18.10
2019-05-09T08:52:10.100Z,18.00
2019-05-09T09:02:21.618Z,20.77
2019-05-09T09:12:23.064Z,22.27
2019-05-09T09:22:14.665Z,20.23
2019-05-09T09:32:19.383Z,19.47
2019-05-09T09:42:24.190Z,20.17
2019-05-09T09:52:30.614Z,18.27
2019-05-09T10:02:37.866Z,17.93
2019-05-09T10:12:44.677Z,19.37
2019-05-09T10:22:58.661Z,18.27
2019-05-09T10:32:55.476Z,17.23
2019-05-09T10:43:33.952Z,19.07
2019-05-09T10:53:25.178Z,21.87
2019-05-09T11:03:29.694Z,19.37
2019-05-09T11:13:34.145Z,18.77
2019-05-09T11:23:39.320Z,19.43
2019-05-09T11:33:43.980Z,20.80
2019-05-09T11:43:48.933Z,18.63
2019-05-09T11:53:53.409Z,14.87
2019-05-09T12:03:57.979Z,14.53
2019-05-09T12:14:02.451Z,13.03
2019-05-09T12:24:09.135Z,12.33
2019-05-09T12:34:15.021Z,11.80
2019-05-09T12:44:19.488Z,12.30
2019-05-09T12:54:24.218Z,10.93
2019-05-09T13:04:28.841Z,10.57
2019-05-09T13:14:33.333Z,11.40
2019-05-09T13:24:38.031Z,11.10
2019-05-09T13:34:42.735Z,9.57
2019-05-09T13:44:47.612Z,10.33
2019-05-09T13:54:52.234Z,9.73
2019-05-09T14:04:58.394Z,8.27
2019-05-09T14:15:03.244Z,10.43
2019-05-09T14:25:11.715Z,9.73
2019-05-09T14:35:14.686Z,8.60
2019-05-09T14:45:19.337Z,10.03
2019-05-09T14:55:23.859Z,7.93
2019-05-09T15:05:28.323Z,9.23
2019-05-09T15:15:32.932Z,8.40
2019-05-09T15:25:38.420Z,7.53
2019-05-09T15:35:43.072Z,7.97
2019-05-09T15:45:49.216Z,8.83
2019-05-09T15:55:53.754Z,10.07
2019-05-09T16:05:59.412Z,10.10
2019-05-09T16:16:04.091Z,11.93
2019-05-09T16:26:08.606Z,15.97
2019-05-09T16:36:13.205Z,18.50
2019-05-09T16:46:18.609Z,21.30
2019-05-09T16:56:23.114Z,22.23
2019-05-09T17:06:27.683Z,23.70
2019-05-09T17:16:32.206Z,18.33
2019-05-09T17:26:37.898Z,19.30
2019-05-09T17:36:42.861Z,23.27
2019-05-09T17:46:48.090Z,24.13
2019-05-09T17:56:52.800Z,22.73
2019-05-09T18:06:58.723Z,25.37
2019-05-09T18:17:03.425Z,22.73
2019-05-09T18:27:08.523Z,23.80
2019-05-09T18:37:13.214Z,30.63
2019-05-09T18:47:18.475Z,30.63
2019-05-09T18:57:23.253Z,37.17
2019-05-09T19:07:27.948Z,43.23
2019-05-09T19:17:47.545Z,51.83
2019-05-09T19:27:52.129Z,49.70
2019-05-09T19:37:56.709Z,58.47
2019-05-09T19:48:01.361Z,68.00
2019-05-09T19:58:06.028Z,70.60
2019-05-09T20:08:10.699Z,88.33
2019-05-09T20:18:15.624Z,88.40
2019-05-09T20:28:20.414Z,89.17
2019-05-09T20:38:25.240Z,105.93
2019-05-09T20:48:30.028Z,95.30
2019-05-09T20:58:34.932Z,98.90
2019-05-09T21:08:39.668Z,121.47
2019-05-09T21:18:44.419Z,667.90
2019-05-09T21:28:49.183Z,615.63
2019-05-09T21:38:53.700Z,208.07
2019-05-09T21:48:58.149Z,690.83
2019-05-09T21:59:02.664Z,637.35
2019-05-09T22:09:10.311Z,218.47
2019-05-09T22:19:14.927Z,155.70
2019-05-09T22:29:19.471Z,227.53
2019-05-09T22:39:24.146Z,194.17
2019-05-09T22:49:28.699Z,122.37
2019-05-09T22:59:33.260Z,549.30
2019-05-09T23:09:37.802Z,459.57
2019-05-09T23:19:42.330Z,237.40
2019-05-09T23:29:46.770Z,189.70
2019-05-09T23:39:52.891Z,173.78
2019-05-09T23:49:57.507Z,221.00
